createdAt,value
2022-10-05T00:01:01.290Z,57.56
2022-10-05T00:03:39.113Z,57.63
2022-10-05T00:06:09.442Z,57.53
2022-10-05T00:08:37.243Z,57.64
2022-10-05T00:11:09.512Z,57.60
2022-10-05T00:13:37.272Z,57.59
2022-10-05T00:16:08.479Z,57.65
2022-10-05T00:18:36.643Z,57.59
2022-10-05T00:21:24.880Z,57.71
2022-10-05T00:23:56.910Z,57.66
2022-10-05T00:26:27.724Z,57.83
2022-10-05T00:28:55.682Z,57.85
2022-10-05T00:31:32.877Z,57.99
2022-10-05T00:34:00.878Z,57.91
2022-10-05T00:36:28.629Z,57.94
2022-10-05T00:38:56.478Z,58.06
2022-10-05T00:41:38.968Z,58.23
2022-10-05T00:44:50.756Z,58.05
2022-10-05T00:47:41.827Z,57.97
2022-10-05T00:50:56.779Z,57.92
2022-10-05T00:53:39.365Z,57.44
2022-10-05T00:57:04.012Z,57.48
2022-10-05T00:59:49.475Z,57.73
2022-10-05T01:02:40.061Z,57.69
2022-10-05T01:05:35.607Z,57.77
2022-10-05T01:08:37.393Z,57.81
2022-10-05T01:11:20.476Z,57.86
2022-10-05T01:14:11.867Z,57.59
2022-10-05T01:16:49.078Z,58.21
2022-10-05T01:19:54.772Z,58.12
2022-10-05T01:22:34.654Z,58.33
2022-10-05T01:25:13.103Z,58.31
2022-10-05T01:28:04.015Z,58.12
2022-10-05T01:30:42.866Z,58.19
2022-10-05T01:33:46.357Z,58.14
2022-10-05T01:36:40.645Z,57.85
2022-10-05T01:39:43.996Z,57.58
2022-10-05T01:42:28.170Z,57.53
2022-10-05T01:45:10.842Z,57.51
2022-10-05T01:47:49.920Z,57.79
2022-10-05T01:50:23.138Z,57.75
2022-10-05T01:53:26.503Z,57.76
2022-10-05T01:56:38.836Z,57.79
2022-10-05T01:59:19.984Z,57.55
2022-10-05T02:02:14.163Z,57.77
2022-10-05T02:05:08.392Z,57.36
2022-10-05T02:07:49.588Z,57.08
2022-10-05T02:10:28.941Z,57.55
2022-10-05T02:13:17.552Z,57.36
2022-10-05T02:16:00.484Z,57.27
2022-10-05T02:18:41.952Z,57.42
2022-10-05T02:21:10.791Z,57.62
2022-10-05T02:23:41.272Z,57.41
2022-10-05T02:26:12.004Z,57.54
2022-10-05T02:28:53.820Z,57.51
2022-10-05T02:31:55.838Z,57.45
2022-10-05T02:34:34.096Z,57.75
2022-10-05T02:37:37.735Z,57.59
2022-10-05T02:40:19.596Z,57.66
2022-10-05T02:43:12.274Z,57.44
2022-10-05T02:45:54.372Z,57.41
2022-10-05T02:48:48.260Z,58.06
2022-10-05T02:51:46.772Z,58.31
2022-10-05T02:54:40.139Z,58.71
2022-10-05T02:57:28.910Z,58.66
2022-10-05T03:00:15.829Z,58.85
2022-10-05T03:03:06.354Z,59.21
2022-10-05T03:06:02.501Z,58.88
2022-10-05T03:09:02.622Z,58.60
2022-10-05T03:11:43.859Z,58.44
2022-10-05T03:14:46.660Z,58.31
2022-10-05T03:17:24.925Z,58.01
2022-10-05T03:20:18.446Z,57.85
2022-10-05T03:22:58.807Z,57.94
2022-10-05T03:25:51.347Z,57.85
2022-10-05T03:28:31.076Z,57.59
2022-10-05T03:31:14.876Z,57.43
2022-10-05T03:33:48.497Z,57.39
2022-10-05T03:36:50.684Z,57.71
2022-10-05T03:39:28.189Z,57.83
2022-10-05T03:42:33.197Z,57.96
2022-10-05T03:45:33.297Z,57.59
2022-10-05T03:48:14.320Z,57.92
2022-10-05T03:51:06.566Z,58.05
2022-10-05T03:54:07.674Z,57.95
2022-10-05T03:56:46.652Z,58.11
2022-10-05T03:59:32.593Z,58.11
2022-10-05T04:02:26.220Z,58.26
2022-10-05T04:05:17.619Z,58.19
2022-10-05T04:08:09.188Z,58.36
2022-10-05T04:10:54.233Z,58.57
2022-10-05T04:14:02.277Z,58.44
2022-10-05T04:16:48.046Z,58.27
2022-10-05T04:19:27.184Z,58.29
2022-10-05T04:22:15.911Z,58.04
2022-10-05T04:24:56.183Z,58.18
2022-10-05T04:27:48.533Z,58.10
2022-10-05T04:30:19.719Z,58.20
2022-10-05T04:32:59.299Z,58.06
2022-10-05T04:36:04.418Z,57.74
2022-10-05T04:39:01.944Z,57.96
2022-10-05T04:41:48.217Z,57.79
2022-10-05T04:44:27.973Z,57.59
2022-10-05T04:47:16.673Z,57.79
2022-10-05T04:50:01.808Z,57.66
2022-10-05T04:53:10.289Z,57.89
2022-10-05T04:56:12.860Z,57.89
2022-10-05T04:59:17.654Z,57.69
2022-10-05T05:02:03.526Z,57.65
2022-10-05T05:05:06.006Z,57.63
2022-10-05T05:07:53.591Z,57.69
2022-10-05T05:10:51.949Z,57.72
2022-10-05T05:14:04.250Z,57.43
2022-10-05T05:16:52.646Z,57.13
2022-10-05T05:19:35.164Z,57.14
2022-10-05T05:22:33.838Z,57.14
2022-10-05T05:25:38.384Z,57.10
2022-10-05T05:28:51.774Z,57.44
2022-10-05T05:32:07.085Z,57.35
2022-10-05T05:35:07.345Z,57.56
2022-10-05T05:38:20.600Z,57.68
2022-10-05T05:41:16.664Z,57.61
2022-10-05T05:44:19.409Z,57.71
2022-10-05T05:47:18.606Z,58.02
2022-10-05T05:50:07.891Z,58.30
2022-10-05T05:52:51.687Z,58.25
2022-10-05T05:55:36.093Z,58.36
2022-10-05T05:58:19.545Z,58.17
2022-10-05T06:01:25.041Z,58.19
2022-10-05T06:04:25.808Z,58.18
2022-10-05T06:06:57.777Z,58.28
2022-10-05T06:09:46.107Z,58.36
2022-10-05T06:12:41.644Z,58.38
2022-10-05T06:15:34.748Z,58.27
2022-10-05T06:18:14.590Z,58.69
2022-10-05T06:21:11.560Z,58.53
2022-10-05T06:23:50.754Z,58.75
2022-10-05T06:26:24.858Z,58.69
2022-10-05T06:29:04.004Z,58.91
2022-10-05T06:31:57.921Z,58.50
2022-10-05T06:34:48.722Z,58.74
2022-10-05T06:37:56.866Z,58.75
2022-10-05T06:40:56.084Z,58.77
2022-10-05T06:43:42.131Z,58.70
2022-10-05T06:46:55.914Z,58.73
2022-10-05T06:50:00.558Z,58.21
2022-10-05T06:53:18.599Z,58.40
2022-10-05T06:56:54.981Z,58.52
2022-10-05T07:00:01.634Z,58.72
2022-10-05T07:02:52.664Z,58.72
2022-10-05T07:06:00.216Z,58.80
2022-10-05T07:08:47.182Z,58.72
2022-10-05T07:11:55.785Z,58.93
2022-10-05T07:15:22.439Z,58.85
2022-10-05T07:18:22.236Z,58.53
2022-10-05T07:21:15.989Z,58.56
2022-10-05T07:24:33.052Z,58.69
2022-10-05T07:27:22.787Z,58.08
2022-10-05T07:30:12.719Z,58.63
2022-10-05T07:33:13.017Z,58.61
2022-10-05T07:36:22.871Z,58.62
2022-10-05T07:39:03.206Z,58.75
2022-10-05T07:41:47.742Z,58.49
2022-10-05T07:44:45.755Z,58.46
2022-10-05T07:47:38.032Z,58.48
2022-10-05T07:50:44.195Z,58.44
2022-10-05T07:53:25.542Z,58.98
2022-10-05T07:56:05.174Z,58.88
2022-10-05T07:58:43.539Z,59.01
2022-10-05T08:01:29.653Z,59.13
2022-10-05T08:04:27.108Z,58.95
2022-10-05T08:07:07.174Z,58.77
2022-10-05T08:09:56.387Z,58.79
2022-10-05T08:12:30.864Z,59.08
2022-10-05T08:15:17.758Z,59.20
2022-10-05T08:17:54.632Z,59.40
2022-10-05T08:20:48.215Z,59.20
2022-10-05T08:23:22.525Z,59.38
2022-10-05T08:26:06.506Z,59.48
2022-10-05T08:28:53.431Z,59.65
2022-10-05T08:31:29.831Z,59.63
2022-10-05T08:34:23.303Z,59.27
2022-10-05T08:37:07.055Z,59.44
2022-10-05T08:39:53.996Z,59.35
2022-10-05T08:43:04.727Z,59.25
2022-10-05T08:45:44.019Z,59.32
2022-10-05T08:48:42.465Z,59.43
2022-10-05T08:51:29.628Z,59.52
2022-10-05T08:54:27.683Z,59.31
2022-10-05T08:57:22.228Z,59.29
2022-10-05T09:00:24.035Z,59.35
2022-10-05T09:03:15.963Z,58.91
2022-10-05T09:06:11.873Z,59.14
2022-10-05T09:09:15.238Z,58.93
2022-10-05T09:12:06.322Z,58.61
2022-10-05T09:15:25.010Z,58.58
2022-10-05T09:18:21.645Z,58.30
2022-10-05T09:21:06.481Z,58.21
2022-10-05T09:23:43.607Z,58.46
2022-10-05T09:26:45.686Z,58.10
2022-10-05T09:30:03.373Z,58.38
2022-10-05T09:32:39.969Z,58.18
2022-10-05T09:35:37.911Z,58.35
2022-10-05T09:38:21.064Z,58.22
2022-10-05T09:41:30.449Z,57.96
2022-10-05T09:44:12.923Z,57.65
2022-10-05T09:47:02.567Z,57.71
2022-10-05T09:50:04.593Z,57.87
2022-10-05T09:53:06.026Z,57.83
2022-10-05T09:56:13.575Z,57.93
2022-10-05T09:59:18.112Z,57.73
2022-10-05T10:02:19.639Z,57.44
2022-10-05T10:05:09.113Z,57.52
2022-10-05T10:08:04.790Z,57.39
2022-10-05T10:11:11.462Z,57.45
2022-10-05T10:14:14.458Z,57.38
2022-10-05T10:17:01.195Z,57.29
2022-10-05T10:19:57.039Z,57.49
2022-10-05T10:22:30.803Z,57.12
2022-10-05T10:25:42.244Z,57.15
2022-10-05T10:29:01.159Z,57.08
2022-10-05T10:32:15.870Z,57.23
2022-10-05T10:35:26.507Z,57.14
2022-10-05T10:38:33.870Z,57.07
2022-10-05T10:41:42.134Z,56.97
2022-10-05T10:44:40.046Z,56.78
2022-10-05T10:47:28.513Z,56.59
2022-10-05T10:50:40.931Z,56.59
2022-10-05T10:53:56.157Z,56.60
2022-10-05T10:57:01.159Z,56.35
2022-10-05T10:59:31.856Z,56.33
2022-10-05T11:02:29.553Z,56.62
2022-10-05T11:05:51.341Z,56.22
2022-10-05T11:08:51.106Z,55.84
2022-10-05T11:11:37.124Z,55.92
2022-10-05T11:14:13.751Z,55.34
2022-10-05T11:17:29.422Z,55.56
2022-10-05T11:20:25.057Z,55.13
2022-10-05T11:23:11.551Z,55.24
2022-10-05T11:25:47.406Z,55.25
2022-10-05T11:28:52.951Z,55.14
2022-10-05T11:31:48.066Z,54.79
2022-10-05T11:34:59.043Z,54.93
2022-10-05T11:37:49.207Z,54.48
2022-10-05T11:40:52.676Z,54.57
2022-10-05T11:44:24.694Z,54.53
2022-10-05T11:47:24.628Z,54.65
2022-10-05T11:50:26.831Z,54.37
2022-10-05T11:53:29.559Z,53.70
2022-10-05T11:56:18.276Z,53.87
2022-10-05T11:59:26.685Z,54.09
2022-10-05T12:02:47.403Z,53.77
2022-10-05T12:05:36.150Z,53.20
2022-10-05T12:08:33.827Z,52.88
2022-10-05T12:11:48.032Z,52.13
2022-10-05T12:14:41.217Z,52.38
2022-10-05T12:17:20.888Z,52.41
2022-10-05T12:20:23.802Z,51.72
2022-10-05T12:23:38.630Z,51.92
2022-10-05T12:26:29.095Z,51.99
2022-10-05T12:29:22.460Z,51.79
2022-10-05T12:32:07.411Z,51.16
2022-10-05T12:35:03.285Z,51.02
2022-10-05T12:37:37.044Z,50.80
2022-10-05T12:40:34.799Z,49.97
2022-10-05T12:43:20.781Z,49.69
2022-10-05T12:46:09.212Z,49.86
2022-10-05T12:49:17.757Z,49.42
2022-10-05T12:51:49.499Z,49.04
2022-10-05T12:54:36.345Z,48.56
2022-10-05T12:57:15.439Z,48.82
2022-10-05T12:59:49.287Z,48.60
2022-10-05T13:02:33.028Z,48.76
2022-10-05T13:05:10.356Z,47.55
2022-10-05T13:08:03.728Z,47.58
2022-10-05T13:10:52.736Z,47.71
2022-10-05T13:13:50.754Z,47.37
2022-10-05T13:16:37.641Z,47.08
2022-10-05T13:19:44.551Z,46.18
2022-10-05T13:22:34.930Z,46.80
2022-10-05T13:25:31.261Z,46.72
2022-10-05T13:28:26.079Z,46.34
2022-10-05T13:31:13.408Z,46.71
2022-10-05T13:33:54.361Z,46.48
2022-10-05T13:36:51.852Z,46.38
2022-10-05T13:39:37.476Z,46.29
2022-10-05T13:42:30.510Z,46.47
2022-10-05T13:45:17.918Z,46.36
2022-10-05T13:47:48.686Z,46.40
2022-10-05T13:50:33.608Z,46.10
2022-10-05T13:53:48.283Z,45.68
2022-10-05T13:56:51.848Z,45.97
2022-10-05T13:59:41.810Z,45.24
2022-10-05T14:02:38.400Z,45.38
2022-10-05T14:05:23.304Z,45.56
2022-10-05T14:08:15.792Z,45.63
2022-10-05T14:10:47.298Z,45.39
2022-10-05T14:13:26.865Z,45.49
2022-10-05T14:19:51.178Z,44.83
2022-10-05T14:22:25.053Z,44.22
2022-10-05T14:25:07.639Z,44.02
2022-10-05T14:27:56.105Z,44.42
2022-10-05T14:30:27.344Z,44.13
2022-10-05T14:33:06.029Z,43.70
2022-10-05T14:35:52.685Z,43.23
2022-10-05T14:38:56.941Z,43.82
2022-10-05T14:41:28.439Z,43.21
2022-10-05T14:44:13.675Z,43.26
2022-10-05T14:46:56.502Z,43.28
2022-10-05T14:49:38.292Z,43.63
2022-10-05T14:52:51.696Z,42.57
2022-10-05T14:55:38.225Z,43.09
2022-10-05T14:58:31.753Z,43.59
2022-10-05T15:01:14.806Z,43.03
2022-10-05T15:03:55.698Z,42.47
2022-10-05T15:06:42.399Z,42.96
2022-10-05T15:09:45.611Z,42.83
2022-10-05T15:12:24.913Z,42.64
2022-10-05T15:15:25.497Z,42.63
2022-10-05T15:18:28.392Z,43.18
2022-10-05T15:21:42.431Z,42.46
2022-10-05T15:24:50.686Z,42.58
2022-10-05T15:27:42.153Z,41.87
2022-10-05T15:30:18.258Z,42.18
2022-10-05T15:33:10.671Z,42.47
2022-10-05T15:36:04.353Z,42.26
2022-10-05T15:39:04.094Z,42.52
2022-10-05T15:41:40.731Z,42.89
2022-10-05T15:44:42.235Z,43.20
2022-10-05T15:47:21.026Z,43.48
2022-10-05T15:50:16.910Z,43.66
2022-10-05T15:52:56.201Z,43.99
2022-10-05T15:55:43.506Z,44.16
2022-10-05T15:58:35.896Z,44.48
2022-10-05T16:01:40.284Z,44.74
2022-10-05T16:04:38.721Z,44.84
2022-10-05T16:07:37.659Z,44.74
2022-10-05T16:10:21.604Z,45.18
2022-10-05T16:13:23.195Z,45.42
2022-10-05T16:16:24.956Z,45.64
2022-10-05T16:19:39.491Z,45.99
2022-10-05T16:22:18.464Z,46.71
2022-10-05T16:25:12.568Z,46.43
2022-10-05T16:28:11.835Z,46.28
2022-10-05T16:31:18.172Z,44.96
2022-10-05T16:34:23.535Z,44.35
2022-10-05T16:37:35.702Z,44.07
2022-10-05T16:40:19.611Z,43.23
2022-10-05T16:42:57.853Z,42.78
2022-10-05T16:45:51.751Z,42.69
2022-10-05T16:48:22.397Z,43.11
2022-10-05T16:51:16.039Z,42.30
2022-10-05T16:54:00.446Z,41.44
2022-10-05T16:57:03.620Z,41.47
2022-10-05T17:00:04.690Z,41.11
2022-10-05T17:02:41.642Z,40.62
2022-10-05T17:05:25.992Z,40.61
2022-10-05T17:08:38.390Z,40.80
2022-10-05T17:11:28.263Z,40.82
2022-10-05T17:14:45.731Z,40.95
2022-10-05T17:17:52.794Z,41.08
2022-10-05T17:21:02.859Z,41.49
2022-10-05T17:24:20.811Z,41.38
2022-10-05T17:27:02.950Z,41.28
2022-10-05T17:29:52.323Z,41.17
2022-10-05T17:32:20.119Z,41.31
2022-10-05T17:35:02.454Z,41.03
2022-10-05T17:37:41.636Z,41.04
2022-10-05T17:40:31.113Z,41.25
2022-10-05T17:43:25.008Z,41.02
2022-10-05T17:45:57.205Z,41.14
2022-10-05T17:49:03.327Z,41.44
2022-10-05T17:51:49.467Z,41.07
2022-10-05T17:55:05.388Z,41.36
2022-10-05T17:57:34.173Z,40.98
2022-10-05T18:00:05.995Z,40.67
2022-10-05T18:02:38.512Z,41.27
2022-10-05T18:05:12.538Z,41.04
2022-10-05T18:07:42.535Z,40.92
2022-10-05T18:10:11.611Z,40.67
2022-10-05T18:12:41.837Z,40.64
2022-10-05T18:15:09.474Z,40.88
2022-10-05T18:18:00.937Z,40.74
2022-10-05T18:20:32.666Z,40.69
2022-10-05T18:23:03.542Z,40.77
2022-10-05T18:25:56.086Z,41.28
2022-10-05T18:28:32.305Z,40.94
2022-10-05T18:31:30.520Z,40.84
2022-10-05T18:34:39.579Z,41.40
2022-10-05T18:37:39.175Z,41.12
2022-10-05T18:40:24.914Z,40.96
2022-10-05T18:43:24.763Z,40.80
2022-10-05T18:46:30.641Z,40.97
2022-10-05T18:49:29.118Z,40.79
2022-10-05T18:52:45.026Z,41.18
2022-10-05T18:55:44.532Z,41.55
2022-10-05T18:58:55.936Z,41.40
2022-10-05T19:02:07.283Z,41.69
2022-10-05T19:04:50.506Z,41.69
2022-10-05T19:07:18.155Z,41.57
2022-10-05T19:10:00.372Z,41.83
2022-10-05T19:12:56.118Z,42.30
2022-10-05T19:15:42.331Z,42.38
2022-10-05T19:18:16.193Z,42.34
2022-10-05T19:20:58.614Z,42.46
2022-10-05T19:23:55.522Z,42.83
2022-10-05T19:27:06.799Z,42.80
2022-10-05T19:30:15.497Z,42.96
2022-10-05T19:33:05.079Z,42.98
2022-10-05T19:36:10.794Z,43.22
2022-10-05T19:39:03.540Z,43.32
2022-10-05T19:41:54.390Z,43.58
2022-10-05T19:45:08.915Z,43.50
2022-10-05T19:48:36.340Z,43.52
2022-10-05T19:51:35.590Z,43.28
2022-10-05T19:54:32.412Z,43.48
2022-10-05T19:57:02.607Z,43.26
2022-10-05T19:59:34.674Z,43.51
2022-10-05T20:02:04.164Z,43.77
2022-10-05T20:04:41.959Z,43.66
2022-10-05T20:07:21.575Z,43.64
2022-10-05T20:09:58.759Z,43.52
2022-10-05T20:12:53.839Z,43.87
2022-10-05T20:15:46.806Z,43.78
2022-10-05T20:18:57.863Z,43.74
2022-10-05T20:21:49.491Z,43.98
2022-10-05T20:24:25.501Z,43.90
2022-10-05T20:27:02.411Z,43.78
2022-10-05T20:29:35.575Z,43.97
2022-10-05T20:32:08.964Z,43.84
2022-10-05T20:34:41.356Z,44.07
2022-10-05T20:37:15.306Z,44.06
2022-10-05T20:39:43.736Z,43.97
2022-10-05T20:42:11.960Z,44.13
2022-10-05T20:44:40.191Z,43.81
2022-10-05T20:47:10.926Z,43.95
2022-10-05T20:49:41.279Z,44.06
2022-10-05T20:52:11.362Z,44.10
2022-10-05T20:54:39.780Z,44.09
2022-10-05T20:57:09.415Z,44.29
2022-10-05T20:59:37.609Z,44.18
2022-10-05T21:02:06.204Z,44.26
2022-10-05T21:04:41.716Z,44.26
2022-10-05T21:07:10.172Z,44.27
2022-10-05T21:09:39.382Z,44.28
2022-10-05T21:12:07.356Z,44.52
2022-10-05T21:14:36.345Z,44.21
2022-10-05T21:17:06.351Z,44.32
2022-10-05T21:19:39.414Z,44.33
2022-10-05T21:22:09.665Z,44.31
2022-10-05T21:24:39.640Z,44.34
2022-10-05T21:27:08.328Z,44.10
2022-10-05T21:29:37.080Z,44.37
2022-10-05T21:32:08.666Z,44.09
2022-10-05T21:34:36.896Z,44.42
2022-10-05T21:37:05.164Z,44.29
2022-10-05T21:39:33.790Z,44.14
2022-10-05T21:42:01.782Z,44.26
2022-10-05T21:44:29.521Z,44.11
2022-10-05T21:46:57.370Z,44.44
2022-10-05T21:49:26.345Z,44.34
2022-10-05T21:51:54.655Z,44.20
2022-10-05T21:54:23.777Z,44.26
2022-10-05T21:56:55.550Z,44.33
2022-10-05T21:59:29.724Z,44.01
2022-10-05T22:01:57.783Z,44.04
2022-10-05T22:04:25.565Z,43.99
2022-10-05T22:06:55.454Z,44.03
2022-10-05T22:09:23.549Z,44.07
2022-10-05T22:11:51.516Z,43.99
2022-10-05T22:14:19.291Z,43.96
2022-10-05T22:16:47.369Z,43.85
2022-10-05T22:19:20.023Z,43.73
2022-10-05T22:21:47.918Z,43.44
2022-10-05T22:24:15.683Z,43.24
2022-10-05T22:26:46.728Z,43.29
2022-10-05T22:29:17.332Z,43.19
2022-10-05T22:31:48.886Z,42.80
2022-10-05T22:34:18.291Z,42.88
2022-10-05T22:36:47.543Z,42.93
2022-10-05T22:39:16.545Z,42.93
2022-10-05T22:41:44.592Z,42.84
2022-10-05T22:44:12.373Z,42.87
2022-10-05T22:46:40.449Z,42.88
2022-10-05T22:49:08.232Z,43.02
2022-10-05T22:51:36.010Z,43.17
2022-10-05T22:54:03.949Z,42.91
2022-10-05T22:56:31.937Z,43.02
2022-10-05T22:58:59.664Z,42.84
2022-10-05T23:01:27.554Z,42.91
2022-10-05T23:03:57.215Z,42.92
2022-10-05T23:06:28.048Z,42.83
2022-10-05T23:08:55.979Z,42.83
2022-10-05T23:11:27.870Z,42.87
2022-10-05T23:13:57.120Z,42.92
2022-10-05T23:16:28.002Z,42.88
2022-10-05T23:18:56.687Z,42.84
2022-10-05T23:21:27.840Z,42.89
2022-10-05T23:23:55.686Z,42.94
2022-10-05T23:26:24.956Z,43.04
2022-10-05T23:28:53.389Z,43.03
2022-10-05T23:31:25.617Z,43.02
2022-10-05T23:33:54.098Z,43.51
2022-10-05T23:36:28.438Z,43.19
2022-10-05T23:38:56.155Z,43.10
2022-10-05T23:41:25.008Z,43.22
2022-10-05T23:43:55.207Z,43.25
2022-10-05T23:46:23.290Z,43.21
2022-10-05T23:48:51.270Z,43.23
2022-10-05T23:51:19.147Z,43.25
2022-10-05T23:53:46.938Z,43.10
2022-10-05T23:56:14.684Z,43.22
2022-10-05T23:58:42.578Z,43.26
